Terminal Aerodrome Forecast
Issued by NWS

Home | Current Version | Previous Version | Graphics & Text | Print | Product List | Glossary On
Versions: 1 2 3 4 5 6 7 8 9 10 11 12 13 14 15 16 17 18 19 20 21 22 23 24 25
000
FTUS43 KGRB 251500 AAA
TAFMTW
TAF AMD
KMTW 251538Z 2516/2612 25008G16KT P6SM OVC018
     FM251800 22008G16KT P6SM OVC022
     FM252300 19005KT P6SM SCT025 BKN120
     FM260800 20003KT 6SM BR BKN012 BKN025=

USA.gov is the U.S. government's official web portal to all federal, state and local government web resources and services.